ADDS METAR Data INFO
IDs: Format: Raw Decoded Include TAF

Data at: 0653 UTC 18 Feb 2018

K5C1 180635Z AUTO 02003KT 10SM OVC016 11/07 A3015 RMK AO1
K5C1 180615Z AUTO 00000KT 10SM OVC020 11/07 A3015 RMK AO1
K5C1 180555Z AUTO 36004KT 10SM OVC022 11/08 A3015 RMK AO1
K5C1 180535Z AUTO 00000KT 10SM OVC026 11/09 A3016 RMK AO1
K5C1 180515Z AUTO 03003KT 10SM OVC028 11/08 A3016 RMK AO1
K5C1 180455Z AUTO 00000KT 10SM BKN028 11/10 A3017 RMK AO1
K5C1 180435Z AUTO 00000KT 10SM CLR 11/10 A3017 RMK AO1
K5C1 180415Z AUTO 00000KT 10SM CLR 10/09 A3016 RMK AO1
K5C1 180355Z AUTO 00000KT 10SM CLR 11/10 A3017 RMK AO1
K5C1 180335Z AUTO 00000KT 10SM SCT026 10/10 A3016 RMK AO1
K5C1 180315Z AUTO 00000KT 10SM SCT026 11/10 A3016 RMK AO1
K5C1 180255Z AUTO 36003KT 10SM CLR 12/10 A3015 RMK AO1
K5C1 180235Z AUTO 00000KT 10SM CLR 12/11 A3015 RMK AO1
K5C1 180215Z AUTO 02003KT 10SM CLR 12/11 A3015 RMK AO1
K5C1 180155Z AUTO 34005KT 10SM CLR 13/11 A3015 RMK AO1
K5C1 180135Z AUTO 00000KT 10SM CLR 13/11 A3014 RMK AO1
K5C1 180115Z AUTO 00000KT 10SM SCT009 SCT033 13/11 A3013 RMK AO1
K5C1 180055Z AUTO 06003KT 10SM BKN009 14/11 A3013 RMK AO1
K5C1 180035Z AUTO 06005KT 10SM BKN009 BKN017 15/12 A3013 RMK AO1
K5C1 180015Z AUTO 06004KT 10SM SCT011 BKN017 BKN022 15/13 A3012 RMK AO1
K5C1 172355Z AUTO 08004KT 10SM BKN012 OVC017 16/13 A3012 RMK AO1
K5C1 172335Z AUTO 03006KT 10SM OVC014 16/13 A3012 RMK AO1
K5C1 172315Z AUTO 07006KT 10SM OVC014 17/14 A3011 RMK AO1
K5C1 172255Z AUTO 08007KT 10SM OVC014 17/13 A3010 RMK AO1
K5C1 172235Z AUTO 06009KT 10SM OVC014 17/14 A3010 RMK AO1
K5C1 172215Z AUTO 09005KT 10SM OVC012 18/15 A3009 RMK AO1
K5C1 172155Z AUTO 00000KT 10SM OVC012 17/15 A3009 RMK AO1
K5C1 172135Z AUTO 09003KT 10SM OVC012 17/15 A3009 RMK AO1
K5C1 172115Z AUTO 00000KT 10SM OVC012 17/14 A3009 RMK AO1
K5C1 172055Z AUTO 06003KT 10SM OVC012 17/14 A3009 RMK AO1
K5C1 172035Z AUTO 00000KT 10SM OVC010 17/14 A3009 RMK AO1
K5C1 172015Z AUTO 16003KT 10SM OVC010 17/13 A3008 RMK AO1
K5C1 171955Z AUTO 00000KT 10SM OVC008 17/13 A3008 RMK AO1
K5C1 171935Z AUTO 17003KT 10SM OVC006 16/13 A3008 RMK AO1
K5C1 171915Z AUTO 16004KT 10SM OVC006 15/12 A3009 RMK AO1
K5C1 171855Z AUTO 00000KT 10SM OVC008 13/11 A3011 RMK AO1
K5C1 171835Z AUTO 00000KT 10SM OVC008 12/11 A3012 RMK AO1
K5C1 171815Z AUTO 00000KT 10SM OVC008 12/11 A3013 RMK AO1
K5C1 171755Z AUTO 00000KT 5SM OVC010 11/10 A3014 RMK AO1
K5C1 171735Z AUTO 00000KT 4SM SCT006 OVC010 10/10 A3015 RMK AO1
K5C1 171715Z AUTO 34006KT 3SM OVC006 10/09 A3016 RMK AO1
K5C1 171655Z AUTO 36009KT 4SM OVC004 10/09 A3016 RMK AO1
K5C1 171635Z AUTO 36007KT 1 3/4SM OVC004 10/09 A3015 RMK AO1
K5C1 171615Z AUTO 36007KT 2SM OVC004 10/09 A3015 RMK AO1
K5C1 171555Z AUTO 02007KT 2 1/2SM OVC004 10/10 A3014 RMK AO1
K5C1 171535Z AUTO 36007KT 3SM OVC004 10/10 A3015 RMK AO1
K5C1 171515Z AUTO 36004KT 5SM OVC004 11/10 A3014 RMK AO1
K5C1 171455Z AUTO 36006KT 5SM OVC004 11/11 A3013 RMK AO1
K5C1 171435Z AUTO 36006KT 4SM OVC004 11/11 A3013 RMK AO1
K5C1 171415Z AUTO 36004KT 4SM BKN004 OVC007 11/11 A3012 RMK AO1
K5C1 171355Z AUTO 01003KT 4SM OVC007 11/11 A3012 RMK AO1
K5C1 171335Z AUTO 01004KT 2 1/2SM BKN004 OVC009 11/11 A3011 RMK AO1
K5C1 171315Z AUTO 36003KT 3SM BKN004 OVC009 11/10 A3010 RMK AO1
K5C1 171255Z AUTO 01004KT 4SM OVC009 11/10 A3010 RMK AO1
K5C1 171235Z AUTO 02003KT 3SM BKN005 OVC009 11/10 A3009 RMK AO1
K5C1 171215Z AUTO 00000KT 4SM OVC008 11/10 A3010 RMK AO1
K5C1 171155Z AUTO 36008KT 3SM OVC008 12/11 A3009 RMK AO1
K5C1 171135Z AUTO 36007KT 10SM OVC008 12/10 A3008 RMK AO1
K5C1 171115Z AUTO 35004KT 10SM OVC008 12/10 A3007 RMK AO1
K5C1 171055Z AUTO 00000KT 10SM OVC008 12/10 A3006 RMK AO1
K5C1 171035Z AUTO 15004KT 10SM OVC008 12/09 A3004 RMK AO1
K5C1 171015Z AUTO 15004KT 10SM OVC008 12/07 A3004 RMK AO1
K5C1 170955Z AUTO 16005KT 10SM OVC010 13/07 A3003 RMK AO1
K5C1 170935Z AUTO 15003KT 10SM OVC010 13/07 A3004 RMK AO1
K5C1 170915Z AUTO 00000KT 10SM OVC012 13/07 A3006 RMK AO1
K5C1 170855Z AUTO 15004KT 10SM OVC012 13/06 A3005 RMK AO1
K5C1 170835Z AUTO 14006KT 10SM OVC012 13/06 A3006 RMK AO1
K5C1 170815Z AUTO 15004KT 10SM OVC012 13/06 A3006 RMK AO1
K5C1 170755Z AUTO 00000KT 10SM OVC014 13/05 A3007 RMK AO1
K5C1 170735Z AUTO 11004KT 10SM OVC014 13/05 A3008 RMK AO1
K5C1 170715Z AUTO 00000KT 10SM OVC016 13/05 A3009 RMK AO1
K5C1 170655Z AUTO 11006KT 10SM OVC016 14/05 A3008 RMK AO1
K5C1 170635Z AUTO 12007KT 10SM OVC016 14/05 A3010 RMK AO1
K5C1 170615Z AUTO 09005KT 10SM OVC018 14/05 A3010 RMK AO1
K5C1 170555Z AUTO 00000KT 10SM OVC018 15/05 A3012 RMK AO1
K5C1 170535Z AUTO 08003KT 10SM OVC018 15/05 A3012 RMK AO1
K5C1 170515Z AUTO 08005KT 10SM OVC018 15/05 A3012 RMK AO1
K5C1 170455Z AUTO 09004KT 10SM OVC018 15/06 A3013 RMK AO1
K5C1 170435Z AUTO 07004KT 10SM OVC018 15/06 A3013 RMK AO1
K5C1 170415Z AUTO 08005KT 10SM OVC020 16/06 A3013 RMK AO1
K5C1 170355Z AUTO 07006KT 10SM OVC020 16/07 A3013 RMK AO1
K5C1 170335Z AUTO 06007KT 10SM OVC020 16/07 A3013 RMK AO1
K5C1 170315Z AUTO 05004KT 10SM OVC020 16/07 A3014 RMK AO1
K5C1 170255Z AUTO 03003KT 10SM OVC020 16/07 A3014 RMK AO1
K5C1 170235Z AUTO 04004KT 10SM OVC022 16/07 A3013 RMK AO1
K5C1 170215Z AUTO 04005KT 10SM OVC024 16/07 A3013 RMK AO1
K5C1 170155Z AUTO 04005KT 10SM BKN022 BKN028 OVC050 16/07 A3013 RMK AO1
K5C1 170135Z AUTO 03006KT 10SM OVC022 16/06 A3012 RMK AO1
K5C1 170115Z AUTO 03007KT 10SM OVC022 17/06 A3013 RMK AO1
K5C1 170055Z AUTO 04006KT 10SM OVC024 17/07 A3013 RMK AO1
K5C1 170035Z AUTO 03005KT 10SM OVC024 17/07 A3012 RMK AO1
K5C1 170015Z AUTO 03005KT 10SM OVC024 17/07 A3013 RMK AO1
K5C1 162355Z AUTO 02005KT 10SM OVC022 17/07 A3012 RMK AO1
K5C1 162335Z AUTO 03004KT 10SM OVC020 17/08 A3012 RMK AO1
K5C1 162315Z AUTO 03007KT 10SM OVC020 17/08 A3012 RMK AO1
K5C1 162255Z AUTO 03007KT 10SM OVC020 18/08 A3012 RMK AO1
K5C1 162235Z AUTO 04006KT 10SM OVC020 18/08 A3012 RMK AO1
K5C1 162215Z AUTO 02005KT 10SM OVC020 17/08 A3012 RMK AO1
K5C1 162155Z AUTO 01007KT 10SM OVC020 17/08 A3012 RMK AO1
K5C1 162135Z AUTO 01010G14KT 10SM OVC020 17/08 A3012 RMK AO1
K5C1 162115Z AUTO 01008KT 10SM OVC022 17/09 A3012 RMK AO1
K5C1 162055Z AUTO 02010G14KT 10SM OVC020 17/10 A3013 RMK AO1
K5C1 162035Z AUTO 36008G15KT 10SM OVC020 17/11 A3013 RMK AO1
K5C1 162015Z AUTO 36007KT 10SM OVC020 17/12 A3013 RMK AO1
K5C1 161955Z AUTO 02011G14KT 10SM OVC020 17/13 A3013 RMK AO1
K5C1 161935Z AUTO 01011G14KT 10SM OVC020 18/13 A3014 RMK AO1
K5C1 161915Z AUTO 02010G16KT 10SM OVC025 21/16 A3014 RMK AO1
K5C1 161855Z AUTO 05007KT 10SM OVC023 21/16 A3014 RMK AO1